Time;durP1;ratioP1;P1;durP2;ratioP2;P2;SDS_P1;SDS_P2;PMS_P1;PMS_P2;Temp;Humidity;BMP_temperature;BMP_pressure;BME280_temperature;BME280_humidity;BME280_pressure;Samples;Min_cycle;Max_cycle;Signal;HPM_P1;HPM_P2
2022/05/18 00:01:06;;;;;;;11.30;4.50;;;;;;;18.85;63.44;101760.97;5207061;28;20037;-87
2022/05/18 00:03:43;;;;;;;9.30;4.07;;;;;;;18.81;63.71;101770.13;5203291;28;20038;-87
2022/05/18 00:06:14;;;;;;;8.80;3.70;;;;;;;18.80;63.19;101758.69;5205646;28;20047;-87
2022/05/18 00:08:45;;;;;;;11.20;3.90;;;;;;;18.62;64.00;101761.03;5204256;28;20048;-86
2022/05/18 00:11:19;;;;;;;11.47;4.20;;;;;;;18.41;65.27;101771.50;5203916;28;20042;-87
2022/05/18 00:13:52;;;;;;;14.88;3.92;;;;;;;18.63;64.64;101768.00;5203449;28;20034;-87
2022/05/18 00:16:25;;;;;;;7.00;4.10;;;;;;;18.58;64.67;101767.53;5205012;28;20448;-86
2022/05/18 00:18:57;;;;;;;12.53;4.50;;;;;;;18.57;64.69;101773.81;5203463;28;20045;-87
2022/05/18 00:21:30;;;;;;;8.10;3.83;;;;;;;18.21;65.85;101768.63;5206673;28;21139;-87
2022/05/18 00:24:03;;;;;;;10.00;3.95;;;;;;;18.28;65.08;101775.13;5205129;28;20061;-87
2022/05/18 00:26:35;;;;;;;9.17;3.80;;;;;;;18.22;66.47;101771.13;5202520;28;20502;-87
2022/05/18 00:29:06;;;;;;;12.67;5.63;;;;;;;18.17;66.95;101775.13;5202954;28;20025;-86
2022/05/18 00:31:37;;;;;;;12.73;4.40;;;;;;;18.05;67.45;101775.06;5206495;28;20021;-86
2022/05/18 00:34:09;;;;;;;10.33;4.50;;;;;;;17.92;67.94;101763.75;5204325;28;20037;-86
2022/05/18 00:36:40;;;;;;;12.37;5.10;;;;;;;17.74;68.58;101764.19;5203652;28;20121;-87
2022/05/18 00:39:11;;;;;;;11.43;4.80;;;;;;;18.06;67.62;101775.94;5203923;28;20034;-87
2022/05/18 00:41:43;;;;;;;12.63;4.90;;;;;;;18.16;67.10;101776.94;5202704;28;20059;-87
2022/05/18 00:44:14;;;;;;;7.50;4.17;;;;;;;17.89;68.21;101772.78;5207938;28;20030;-87
2022/05/18 00:46:45;;;;;;;11.53;3.80;;;;;;;18.16;66.96;101782.22;5205660;28;20042;-86
2022/05/18 00:49:17;;;;;;;10.53;3.93;;;;;;;17.70;69.12;101778.63;5205313;28;20022;-86
2022/05/18 00:51:53;;;;;;;8.57;3.77;;;;;;;17.94;68.82;101773.28;5202375;28;20026;-87
2022/05/18 00:54:28;;;;;;;10.30;4.73;;;;;;;17.77;69.30;101771.88;5203045;28;20388;-86
2022/05/18 00:57:13;;;;;;;11.27;4.37;;;;;;;17.96;68.55;101776.63;5205108;28;20520;-84
2022/05/18 01:00:08;;;;;;;11.53;4.60;;;;;;;17.69;69.85;101774.28;5203533;28;20117;-86
2022/05/18 01:02:44;;;;;;;7.97;4.28;;;;;;;17.93;68.43;101776.88;5201701;28;20056;-87
2022/05/18 01:05:20;;;;;;;9.73;4.70;;;;;;;17.68;69.72;101762.84;5204814;28;20128;-87
2022/05/18 01:07:54;;;;;;;9.73;4.03;;;;;;;17.49;70.84;101779.28;5203416;28;20030;-86
2022/05/18 01:10:28;;;;;;;10.50;6.07;;;;;;;17.48;70.27;101773.16;5203803;28;20088;-86
2022/05/18 01:13:02;;;;;;;;;;;;;;;18.02;66.49;101781.47;5203656;28;20572;-86
2022/05/18 01:15:35;;;;;;;11.82;5.13;;;;;;;17.48;70.53;101772.28;5202803;28;20379;-86
2022/05/18 01:18:08;;;;;;;9.50;4.43;;;;;;;17.32;71.03;101757.56;5207287;28;20026;-85
2022/05/18 01:20:44;;;;;;;11.87;5.30;;;;;;;17.66;69.64;101768.25;5205363;28;20479;-86
2022/05/18 01:23:39;;;;;;;10.20;4.80;;;;;;;17.64;69.35;101772.84;5203879;28;20034;-86
2022/05/18 01:26:17;;;;;;;9.60;3.80;;;;;;;17.29;71.20;101763.09;5204564;28;20500;-87
2022/05/18 01:28:56;;;;;;;9.10;4.43;;;;;;;17.30;71.57;101772.69;5205366;28;20044;-87
2022/05/18 01:32:01;;;;;;;10.37;4.20;;;;;;;17.62;69.25;101764.16;5204371;28;20040;-87
2022/05/18 01:34:35;;;;;;;13.23;4.60;;;;;;;17.18;72.63;101771.81;5189603;28;20049;-87
2022/05/18 01:37:06;;;;;;;8.93;4.05;;;;;;;17.34;71.55;101774.16;5204393;28;20065;-86
2022/05/18 01:39:50;;;;;;;9.47;4.13;;;;;;;17.32;71.97;101777.88;5208721;28;20153;-86
2022/05/18 01:42:48;;;;;;;9.35;4.93;;;;;;;17.27;72.51;101775.56;5206761;28;20563;-86
2022/05/18 01:45:19;;;;;;;8.13;4.47;;;;;;;17.05;73.41;101769.19;5206886;28;20050;-87
2022/05/18 01:47:51;;;;;;;8.07;4.57;;;;;;;17.05;73.79;101764.72;5207192;28;20033;-85
2022/05/18 01:50:28;;;;;;;12.40;4.50;;;;;;;17.10;73.84;101767.09;5206953;28;20499;-79
2022/05/18 01:52:59;;;;;;;11.07;5.30;;;;;;;17.16;74.06;101768.41;5207057;28;20041;-86
2022/05/18 01:55:32;;;;;;;8.77;5.00;;;;;;;17.04;74.21;101764.84;5207753;28;20068;-87
2022/05/18 01:58:04;;;;;;;8.87;4.80;;;;;;;16.95;74.45;101754.94;5206429;28;20033;-86
2022/05/18 02:00:35;;;;;;;8.73;4.80;;;;;;;16.99;74.58;101756.41;5207528;28;20100;-86
2022/05/18 02:03:07;;;;;;;10.17;5.03;;;;;;;16.85;75.32;101774.13;5214072;28;20268;-86
2022/05/18 02:05:38;;;;;;;9.57;6.10;;;;;;;17.03;75.15;101769.31;5200851;28;20103;-87
2022/05/18 02:08:11;;;;;;;10.90;5.27;;;;;;;17.00;75.52;101766.88;5220440;28;20112;-85
2022/05/18 02:10:43;;;;;;;11.47;5.63;;;;;;;17.15;74.66;101772.91;5219796;28;20044;-86
2022/05/18 02:13:15;;;;;;;10.73;5.57;;;;;;;16.97;74.83;101768.88;5219593;28;20484;-88
2022/05/18 02:15:47;;;;;;;14.50;6.13;;;;;;;17.06;74.68;101773.53;5219369;28;20022;-86
2022/05/18 02:18:18;;;;;;;9.27;5.63;;;;;;;16.93;75.22;101766.47;5220249;28;20018;-87
2022/05/18 02:20:50;;;;;;;10.07;6.27;;;;;;;16.99;75.13;101767.84;5217940;28;20030;-86
2022/05/18 02:23:22;;;;;;;9.90;5.60;;;;;;;16.86;75.62;101759.94;5219401;28;20128;-87
2022/05/18 02:25:53;;;;;;;11.63;6.70;;;;;;;16.84;75.97;101767.16;5219143;28;20034;-87
2022/05/18 02:28:25;;;;;;;10.30;5.90;;;;;;;16.78;76.38;101757.00;5218982;28;20406;-86
2022/05/18 02:30:56;;;;;;;12.00;6.80;;;;;;;16.81;76.06;101757.63;5220227;28;20109;-87
2022/05/18 02:33:27;;;;;;;11.97;6.00;;;;;;;16.75;75.95;101744.84;5219344;28;20144;-87
2022/05/18 02:35:59;;;;;;;12.73;6.37;;;;;;;16.77;76.49;101752.69;5217442;28;20520;-87
2022/05/18 02:38:30;;;;;;;11.63;6.40;;;;;;;16.66;76.94;101759.59;5219849;28;20484;-87
2022/05/18 02:41:03;;;;;;;14.33;7.77;;;;;;;16.71;77.08;101761.03;5218448;28;20040;-86
2022/05/18 02:43:37;;;;;;;12.07;6.90;;;;;;;16.98;74.84;101744.13;5220080;28;20421;-88
2022/05/18 02:46:15;;;;;;;17.20;8.23;;;;;;;16.92;75.79;101756.84;5218271;28;20044;-86
2022/05/18 02:48:48;;;;;;;12.57;6.63;;;;;;;16.79;76.60;101775.41;5218211;28;20036;-87
2022/05/18 02:51:21;;;;;;;14.00;6.57;;;;;;;17.10;75.22;101767.09;5216638;28;20056;-86
2022/05/18 02:53:52;;;;;;;9.52;6.47;;;;;;;16.74;77.04;101761.66;5218618;28;20391;-87
2022/05/18 02:56:26;;;;;;;12.63;6.83;;;;;;;16.84;76.59;101761.88;5219916;28;20045;-87
2022/05/18 02:58:57;;;;;;;11.77;7.07;;;;;;;16.86;76.69;101759.09;5219237;28;20045;-87
2022/05/18 03:01:28;;;;;;;12.73;7.53;;;;;;;16.79;76.88;101761.34;5203634;28;20597;-87
2022/05/18 03:04:00;;;;;;;8.67;6.00;;;;;;;16.89;76.33;101772.09;5217242;28;20508;-87
2022/05/18 03:06:31;;;;;;;9.77;7.27;;;;;;;16.85;76.15;101763.53;5217407;28;20033;-88
2022/05/18 03:09:03;;;;;;;10.63;6.23;;;;;;;17.01;75.47;101775.66;5218926;28;20673;-87
2022/05/18 03:11:34;;;;;;;9.17;7.03;;;;;;;16.95;74.93;101770.81;5218430;28;20508;-87
2022/05/18 03:14:05;;;;;;;10.23;6.63;;;;;;;16.73;75.72;101780.28;5218080;28;20025;-88
2022/05/18 03:16:37;;;;;;;11.93;6.87;;;;;;;16.83;75.87;101775.19;5219777;28;20033;-87
2022/05/18 03:19:08;;;;;;;10.60;6.43;;;;;;;16.75;76.04;101766.00;5218551;28;20030;-87
2022/05/18 03:24:31;;;;;;;11.10;7.40;;;;;;;16.91;75.19;101788.72;5211677;28;20029;-87
2022/05/18 03:27:03;;;;;;;14.33;7.87;;;;;;;17.09;74.70;101794.47;5211760;28;20045;-87
2022/05/18 03:29:34;;;;;;;12.87;7.13;;;;;;;16.85;75.91;101790.00;5212232;28;20073;-87
2022/05/18 03:32:06;;;;;;;12.13;7.90;;;;;;;16.81;76.91;101793.81;5211270;28;20091;-86
2022/05/18 03:34:37;;;;;;;10.73;6.93;;;;;;;16.87;75.89;101788.09;5211838;28;20468;-87
2022/05/18 03:37:08;;;;;;;20.23;8.50;;;;;;;16.88;76.17;101795.06;5210591;28;20029;-87
2022/05/18 03:39:39;;;;;;;10.80;7.87;;;;;;;16.92;75.97;101795.69;5210874;28;20022;-87
2022/05/18 03:42:11;;;;;;;10.73;7.23;;;;;;;17.05;75.83;101806.25;5211326;28;20049;-87
2022/05/18 03:44:42;;;;;;;12.80;6.93;;;;;;;17.07;75.14;101788.44;5211881;28;20045;-87
2022/05/18 03:47:13;;;;;;;10.07;7.90;;;;;;;17.03;75.23;101786.97;5211460;28;20376;-87
2022/05/18 03:49:44;;;;;;;11.73;6.77;;;;;;;16.84;76.41;101803.34;5211194;28;20080;-87
2022/05/18 03:52:16;;;;;;;13.37;7.10;;;;;;;16.90;76.26;101810.81;5176723;28;20038;-87
2022/05/18 03:54:47;;;;;;;12.80;7.03;;;;;;;17.08;74.97;101803.38;5211377;28;20404;-87
2022/05/18 03:57:19;;;;;;;14.77;6.90;;;;;;;17.02;75.63;101814.38;5211139;28;20460;-87
2022/05/18 03:59:50;;;;;;;13.73;6.60;;;;;;;17.07;75.17;101812.25;5209143;28;20030;-87
2022/05/18 04:02:21;;;;;;;12.67;7.83;;;;;;;17.12;74.46;101793.44;5209995;28;20025;-87
2022/05/18 04:04:52;;;;;;;13.17;6.87;;;;;;;16.92;75.42;101793.91;5209066;28;20022;-87
2022/05/18 04:07:24;;;;;;;11.23;6.47;;;;;;;17.13;74.13;101801.28;5210695;28;20030;-86
2022/05/18 04:09:55;;;;;;;13.13;6.10;;;;;;;17.19;74.01;101807.06;5210911;28;20054;-87
2022/05/18 04:12:27;;;;;;;9.37;6.60;;;;;;;17.11;74.62;101800.53;5210757;28;20030;-86
2022/05/18 04:14:58;;;;;;;10.97;5.93;;;;;;;17.04;74.34;101794.81;5210465;28;20081;-87
2022/05/18 04:17:29;;;;;;;8.33;5.63;;;;;;;17.21;73.90;101789.28;5211218;28;20026;-85
2022/05/18 04:20:01;;;;;;;14.17;5.33;;;;;;;17.27;73.39;101802.91;5209653;28;20480;-86
2022/05/18 04:22:32;;;;;;;11.77;6.17;;;;;;;17.29;73.27;101808.09;5211488;28;20029;-87
2022/05/18 04:25:04;;;;;;;12.93;5.67;;;;;;;17.37;72.86;101808.34;5210620;28;20035;-86
2022/05/18 04:27:36;;;;;;;9.93;6.10;;;;;;;17.43;72.59;101807.06;5211067;28;20029;-87
2022/05/18 04:30:08;;;;;;;9.17;4.97;;;;;;;17.44;72.39;101807.94;5210547;28;20080;-88
2022/05/18 04:32:39;;;;;;;10.43;5.37;;;;;;;17.52;72.85;101816.97;5210650;28;20022;-85
2022/05/18 04:35:14;;;;;;;9.80;4.63;;;;;;;17.59;71.87;101809.44;5209645;28;20542;-88
2022/05/18 04:37:45;;;;;;;9.73;5.90;;;;;;;17.61;71.60;101818.06;5210684;28;20045;-87
2022/05/18 04:40:18;;;;;;;11.40;4.97;;;;;;;17.73;70.99;101818.13;5209189;28;20457;-88
2022/05/18 04:42:49;;;;;;;8.67;4.83;;;;;;;17.75;70.78;101822.34;5210539;28;20034;-87
2022/05/18 04:45:21;;;;;;;7.83;4.93;;;;;;;17.80;70.71;101835.25;5212294;28;20022;-84
2022/05/18 04:47:53;;;;;;;8.97;4.77;;;;;;;17.86;70.31;101834.78;5230131;28;20052;-87
2022/05/18 04:50:24;;;;;;;6.73;4.23;;;;;;;17.82;70.34;101835.97;5227859;28;20029;-88
2022/05/18 04:52:55;;;;;;;10.43;5.77;;;;;;;17.80;70.43;101829.97;5210571;28;20029;-87
2022/05/18 04:55:26;;;;;;;6.57;4.63;;;;;;;17.88;70.45;101842.63;5208858;28;20030;-88
2022/05/18 04:58:02;;;;;;;10.20;4.47;;;;;;;17.88;70.56;101842.63;5209280;28;20121;-87
2022/05/18 05:00:34;;;;;;;8.77;4.63;;;;;;;17.93;70.85;101844.91;5204698;28;20026;-87
2022/05/18 05:03:05;;;;;;;8.93;4.50;;;;;;;18.00;69.74;101848.78;5210583;28;20084;-87
2022/05/18 05:05:38;;;;;;;8.00;4.60;;;;;;;18.07;69.01;101854.47;5208601;28;20048;-87
2022/05/18 05:08:09;;;;;;;8.70;4.40;;;;;;;18.08;69.55;101853.53;5209976;28;20392;-87
2022/05/18 05:10:40;;;;;;;11.30;4.90;;;;;;;18.17;68.86;101850.19;5209134;28;20053;-87
2022/05/18 05:13:12;;;;;;;7.93;4.60;;;;;;;18.20;68.93;101855.28;5212389;28;20038;-87
2022/05/18 05:15:44;;;;;;;9.93;4.57;;;;;;;18.26;68.20;101856.59;5214347;28;20038;-85
2022/05/18 05:18:15;;;;;;;8.67;4.97;;;;;;;18.32;68.30;101864.09;5233690;28;20092;-86
2022/05/18 05:20:47;;;;;;;9.13;4.20;;;;;;;18.37;68.21;101869.88;5234650;28;20075;-86
2022/05/18 05:23:20;;;;;;;11.13;4.70;;;;;;;18.41;68.02;101865.19;5234325;28;20076;-86
2022/05/18 05:25:53;;;;;;;10.05;3.83;;;;;;;18.47;67.62;101864.69;5234223;28;20353;-85
2022/05/18 05:28:25;;;;;;;7.23;4.17;;;;;;;18.54;67.28;101870.38;5234076;28;20603;-85
2022/05/18 05:31:11;;;;;;;15.00;4.63;;;;;;;18.62;67.12;101877.75;5234166;28;20018;-87
2022/05/18 05:33:42;;;;;;;6.30;4.10;;;;;;;18.67;66.60;101872.06;5234955;28;21095;-87
2022/05/18 05:36:13;;;;;;;9.07;4.10;;;;;;;18.66;66.27;101855.28;5233591;28;20026;-88
2022/05/18 05:38:45;;;;;;;14.47;4.13;;;;;;;18.80;66.08;101875.44;5235089;28;20096;-88
2022/05/18 05:41:17;;;;;;;8.70;4.60;;;;;;;18.79;66.02;101878.22;5233819;28;20484;-86
2022/05/18 05:43:48;;;;;;;13.77;4.47;;;;;;;18.85;65.61;101878.56;5234453;28;20072;-87
2022/05/18 05:46:19;;;;;;;9.83;4.00;;;;;;;18.84;65.83;101876.91;5234253;28;20017;-80
2022/05/18 05:48:50;;;;;;;8.63;4.20;;;;;;;18.99;64.81;101876.63;5234606;28;20030;-86
2022/05/18 05:51:23;;;;;;;8.73;4.70;;;;;;;19.03;65.38;101875.41;5231307;28;20080;-85
2022/05/18 05:53:55;;;;;;;7.70;4.27;;;;;;;19.04;65.34;101893.03;5234170;28;20022;-83
2022/05/18 05:56:26;;;;;;;8.13;4.20;;;;;;;19.13;64.94;101895.97;5225885;28;20045;-83
2022/05/18 05:58:58;;;;;;;10.70;4.67;;;;;;;19.12;65.52;101902.22;5222080;28;20022;-84
2022/05/18 06:01:30;;;;;;;7.17;4.53;;;;;;;19.25;65.18;101912.72;5208276;28;20117;-84
2022/05/18 06:04:03;;;;;;;10.20;4.57;;;;;;;19.21;65.58;101894.38;5215217;28;20044;-85
2022/05/18 06:06:37;;;;;;;10.57;4.27;;;;;;;19.27;65.21;101897.50;5210016;28;20038;-87
2022/05/18 06:09:09;;;;;;;11.57;3.97;;;;;;;19.37;65.28;101908.22;5210799;28;20030;-83
2022/05/18 06:11:40;;;;;;;9.83;4.13;;;;;;;19.33;65.34;101892.53;5210732;28;20499;-84
2022/05/18 06:14:11;;;;;;;12.07;4.17;;;;;;;19.39;64.71;101906.28;5210581;28;20365;-83
2022/05/18 06:16:43;;;;;;;7.83;3.73;;;;;;;19.39;64.77;101907.13;5197636;28;20083;-82
2022/05/18 06:19:15;;;;;;;10.90;3.83;;;;;;;19.42;65.07;101909.56;5212769;28;20043;-83
2022/05/18 06:21:47;;;;;;;10.67;3.30;;;;;;;19.42;64.63;101912.22;5209685;28;20045;-84
2022/05/18 06:24:19;;;;;;;5.37;3.90;;;;;;;19.44;64.90;101920.88;5211337;28;20037;-84
2022/05/18 06:26:50;;;;;;;12.40;4.23;;;;;;;19.51;64.73;101929.22;5208888;28;20121;-85
2022/05/18 06:29:22;;;;;;;8.27;4.00;;;;;;;19.53;64.43;101921.94;5213621;28;20463;-83
2022/05/18 06:31:53;;;;;;;8.83;4.33;;;;;;;19.63;64.79;101926.50;5210511;28;20531;-85
2022/05/18 06:34:24;;;;;;;7.07;3.70;;;;;;;19.57;64.72;101919.88;5210331;28;20060;-83
2022/05/18 06:36:56;;;;;;;10.27;3.83;;;;;;;19.63;63.95;101924.72;5208678;28;20508;-85
2022/05/18 06:39:27;;;;;;;9.73;4.30;;;;;;;19.70;64.00;101925.03;5211578;28;20953;-80
2022/05/18 06:41:58;;;;;;;8.50;3.87;;;;;;;19.77;63.91;101936.88;5211895;28;20033;-81
2022/05/18 06:44:30;;;;;;;11.13;4.00;;;;;;;19.86;62.95;101939.72;5211499;28;20105;-81
2022/05/18 06:47:01;;;;;;;26.93;5.97;;;;;;;19.87;62.60;101938.75;5210041;28;20129;-78
2022/05/18 06:49:33;;;;;;;14.30;4.40;;;;;;;19.85;62.24;101936.22;5207527;28;20033;-78
2022/05/18 06:52:04;;;;;;;16.80;5.57;;;;;;;19.91;61.67;101948.16;5209500;28;20025;-83
2022/05/18 06:54:36;;;;;;;16.10;4.67;;;;;;;19.86;62.30;101923.78;5207400;28;20056;-84
2022/05/18 06:57:07;;;;;;;26.07;5.17;;;;;;;19.95;61.29;101930.97;5209243;28;20500;-86
2022/05/18 06:59:39;;;;;;;19.60;5.60;;;;;;;20.03;60.81;101944.50;5212457;28;20049;-85
2022/05/18 07:02:10;;;;;;;21.33;5.50;;;;;;;19.95;61.35;101917.69;5211152;28;20026;-83
2022/05/18 07:04:41;;;;;;;13.50;5.50;;;;;;;20.16;60.85;101946.16;5208789;28;20041;-86
2022/05/18 07:07:12;;;;;;;18.80;5.67;;;;;;;20.30;60.46;101947.63;5205485;28;20117;-81
2022/05/18 07:09:44;;;;;;;20.03;7.30;;;;;;;20.38;60.76;101962.97;5210970;28;20072;-83
2022/05/18 07:12:15;;;;;;;16.57;7.67;;;;;;;20.43;61.09;101952.78;5207564;28;20041;-84
2022/05/18 07:14:46;;;;;;;12.77;6.40;;;;;;;20.46;61.06;101965.81;5211241;28;20108;-85
2022/05/18 07:17:17;;;;;;;13.20;8.10;;;;;;;20.42;61.21;101957.25;5202900;28;20057;-82
2022/05/18 07:19:49;;;;;;;14.07;7.50;;;;;;;20.40;61.80;101958.34;5205534;28;20061;-85
2022/05/18 07:22:20;;;;;;;16.87;8.73;;;;;;;20.45;62.04;101966.78;5206892;28;20079;-83
2022/05/18 07:24:51;;;;;;;18.10;9.00;;;;;;;20.40;62.26;101964.50;5208744;28;20030;-82
2022/05/18 07:27:22;;;;;;;13.20;8.57;;;;;;;20.40;62.71;101956.53;5209438;28;20041;-81
2022/05/18 07:29:54;;;;;;;12.30;8.33;;;;;;;20.52;62.89;101970.63;5210288;28;20045;-81
2022/05/18 07:32:25;;;;;;;16.20;8.00;;;;;;;20.67;63.14;101970.28;5207267;28;20029;-81
2022/05/18 07:34:56;;;;;;;11.43;7.30;;;;;;;20.71;62.92;101969.03;5206517;28;20052;-84
2022/05/18 07:37:29;;;;;;;11.97;6.70;;;;;;;20.85;63.44;101977.66;5203636;28;20452;-83
2022/05/18 07:40:00;;;;;;;12.83;7.00;;;;;;;20.85;62.92;101961.69;5209081;28;20463;-84
2022/05/18 07:42:31;;;;;;;15.53;8.47;;;;;;;20.98;62.39;101970.31;5208722;28;20041;-84
2022/05/18 07:45:03;;;;;;;16.23;7.00;;;;;;;21.01;62.62;101972.72;5206133;28;20492;-83
2022/05/18 07:47:34;;;;;;;11.63;7.40;;;;;;;21.23;62.85;101976.16;5205572;28;20028;-84
2022/05/18 07:50:06;;;;;;;14.33;8.00;;;;;;;21.76;62.47;101968.81;5205997;28;20105;-84
2022/05/18 07:52:38;;;;;;;11.40;7.50;;;;;;;22.59;59.26;101976.50;5208574;28;20030;-85
2022/05/18 07:55:09;;;;;;;10.18;6.85;;;;;;;23.08;57.73;101983.53;5206561;28;20030;-83
2022/05/18 07:57:41;;;;;;;13.73;8.10;;;;;;;23.35;55.72;101986.38;5206689;28;20465;-73
2022/05/18 08:00:13;;;;;;;13.82;7.45;;;;;;;23.38;56.02;101992.28;5205977;28;20056;-73
2022/05/18 08:02:44;;;;;;;16.75;8.23;;;;;;;23.75;55.13;101989.66;5214413;28;20033;-74
2022/05/18 08:05:17;;;;;;;11.52;6.57;;;;;;;24.14;54.27;101992.03;5212882;28;20500;-73
2022/05/18 08:07:48;;;;;;;13.07;6.65;;;;;;;24.45;53.26;101992.63;5209153;28;20111;-81
2022/05/18 08:16:00;;;;;;;8.90;6.60;;;;;;;25.15;51.92;101998.06;5207377;28;20068;-81
2022/05/18 08:18:31;;;;;;;13.57;7.25;;;;;;;25.50;50.72;101986.25;5212401;28;20041;-82
2022/05/18 08:21:03;;;;;;;9.90;6.57;;;;;;;25.66;49.90;101995.38;5216442;28;20042;-82
2022/05/18 08:23:34;;;;;;;13.68;6.82;;;;;;;26.11;49.97;101987.03;5211178;28;20033;-81
2022/05/18 08:26:06;;;;;;;9.23;6.50;;;;;;;26.48;48.17;101992.88;5202222;28;20049;-81
2022/05/18 08:28:38;;;;;;;13.18;7.82;;;;;;;27.03;47.18;101993.09;5218535;28;20091;-81
2022/05/18 08:31:09;;;;;;;14.98;7.70;;;;;;;27.51;45.58;101988.63;5219389;28;20108;-81
2022/05/18 08:33:40;;;;;;;12.32;6.30;;;;;;;28.21;44.78;102006.63;5226532;28;20033;-81
2022/05/18 08:36:12;;;;;;;9.70;7.07;;;;;;;28.21;44.65;102012.88;5219507;28;20591;-81
2022/05/18 08:38:44;;;;;;;10.75;7.10;;;;;;;28.80;43.60;102004.22;5214555;28;20088;-82
2022/05/18 08:41:19;;;;;;;10.00;6.55;;;;;;;28.92;43.58;102000.00;5225106;28;20057;-81
2022/05/18 08:43:57;;;;;;;10.52;6.35;;;;;;;29.62;42.25;102006.88;5228675;28;20093;-80
2022/05/18 08:46:42;;;;;;;14.98;6.30;;;;;;;29.89;41.30;102006.31;5207055;28;20045;-79
2022/05/18 08:49:20;;;;;;;12.05;6.05;;;;;;;30.23;40.95;102012.03;5215106;28;20555;-79
2022/05/18 08:52:15;;;;;;;9.45;5.97;;;;;;;30.51;39.98;102013.88;5225076;28;20034;-77
2022/05/18 08:55:12;;;;;;;6.50;5.35;;;;;;;30.93;39.63;102013.09;5220017;28;20039;-75
2022/05/18 08:57:48;;;;;;;11.48;5.85;;;;;;;31.05;38.42;102011.50;5216709;28;20026;-77
2022/05/18 09:00:25;;;;;;;8.95;5.78;;;;;;;31.64;37.09;102008.34;5217788;28;20087;-76
2022/05/18 09:03:10;;;;;;;10.45;5.63;;;;;;;31.77;37.99;102021.03;5227985;28;20029;-85
2022/05/18 09:05:59;;;;;;;9.45;5.60;;;;;;;32.37;37.25;102019.41;5213875;28;20433;-85
2022/05/18 09:08:38;;;;;;;10.20;5.38;;;;;;;32.07;35.61;102017.13;5213426;28;20030;-86
2022/05/18 09:11:19;;;;;;;9.23;6.35;;;;;;;32.10;35.87;102022.97;5213321;28;20046;-83
2022/05/18 09:13:50;;;;;;;8.80;5.35;;;;;;;31.86;35.75;102010.84;5227911;28;20025;-83
2022/05/18 09:16:40;;;;;;;9.82;6.25;;;;;;;32.25;35.66;102027.34;5224669;28;20048;-84
2022/05/18 09:19:35;;;;;;;10.65;7.43;;;;;;;32.71;35.25;102014.75;5227209;28;20060;-83
2022/05/18 09:22:35;;;;;;;10.23;6.18;;;;;;;32.28;34.44;102021.50;5213841;28;20029;-83
2022/05/18 09:25:44;;;;;;;7.95;5.07;;;;;;;32.56;35.51;102020.44;5228798;28;20025;-83
2022/05/18 09:28:37;;;;;;;13.98;5.68;;;;;;;31.75;34.75;102009.63;5221599;28;20059;-82
2022/05/18 09:31:27;;;;;;;8.70;4.85;;;;;;;31.61;35.61;102016.88;5214850;28;20030;-83
2022/05/18 09:34:13;;;;;;;8.55;4.43;;;;;;;31.58;36.03;102018.09;5211740;28;20029;-82
2022/05/18 09:37:23;;;;;;;6.40;3.50;;;;;;;32.30;35.54;102015.84;5218411;28;20034;-82
2022/05/18 09:40:02;;;;;;;7.03;3.30;;;;;;;31.96;34.49;102015.88;5212642;28;20133;-83
2022/05/18 09:42:39;;;;;;;4.32;2.80;;;;;;;31.75;34.30;102009.63;5220445;28;20113;-82
2022/05/18 09:45:25;;;;;;;7.35;4.45;;;;;;;31.76;34.19;102013.97;5216621;28;20484;-83
2022/05/18 09:48:27;;;;;;;9.70;3.10;;;;;;;31.57;35.62;102007.50;5213620;28;20029;-82
2022/05/18 09:50:59;;;;;;;6.85;3.53;;;;;;;31.53;34.82;102009.78;5227577;28;20032;-82
2022/05/18 09:53:31;;;;;;;5.13;2.65;;;;;;;31.91;34.24;102015.66;5223520;28;20022;-82
2022/05/18 09:56:07;;;;;;;8.38;2.92;;;;;;;32.39;33.18;102016.47;5224112;28;20103;-82
2022/05/18 09:58:43;;;;;;;7.13;1.77;;;;;;;32.77;32.70;102009.50;5223763;28;20041;-83
2022/05/18 10:10:20;;;;;;;7.88;2.13;;;;;;;34.42;31.46;102020.81;5222993;28;20073;-80
2022/05/18 10:12:54;;;;;;;3.80;1.77;;;;;;;34.53;29.64;102016.47;5221917;28;20116;-80
2022/05/18 10:15:31;;;;;;;4.32;2.00;;;;;;;34.81;28.92;102022.47;5222876;28;20048;-80
2022/05/18 10:18:11;;;;;;;4.10;1.63;;;;;;;34.79;30.34;102021.88;5215015;28;20104;-80
2022/05/18 10:20:59;;;;;;;3.35;1.70;;;;;;;35.78;29.38;102013.63;5222568;28;20417;-81
2022/05/18 10:23:32;;;;;;;4.95;1.92;;;;;;;35.34;27.70;102018.25;5232281;28;20052;-81
2022/05/18 10:26:14;;;;;;;9.87;1.80;;;;;;;35.94;28.10;102015.63;5217877;28;20485;-79
2022/05/18 10:28:55;;;;;;;6.82;1.98;;;;;;;36.06;27.05;102012.09;5217486;28;20124;-79
2022/05/18 10:31:42;;;;;;;6.85;1.98;;;;;;;35.41;27.20;102020.88;5219619;28;20484;-80
2022/05/18 10:34:18;;;;;;;4.07;1.75;;;;;;;35.73;27.15;102012.41;5217026;28;20733;-79
2022/05/18 10:36:55;;;;;;;5.18;2.25;;;;;;;34.99;26.47;102014.31;5225286;28;20760;-80
2022/05/18 10:39:42;;;;;;;9.82;2.20;;;;;;;34.52;28.65;102003.97;5217756;28;20106;-78
2022/05/18 10:42:20;;;;;;;6.20;1.95;;;;;;;34.38;27.91;102004.09;5222855;28;20022;-80
2022/05/18 10:44:54;;;;;;;7.97;2.47;;;;;;;34.13;27.75;102004.09;5214194;28;20128;-80
2022/05/18 10:47:36;;;;;;;6.65;2.00;;;;;;;34.44;28.35;102004.25;5215008;28;20641;-77
2022/05/18 10:50:25;;;;;;;6.20;2.10;;;;;;;34.06;29.54;101990.59;5214256;28;20030;-78
2022/05/18 10:53:27;;;;;;;7.10;2.33;;;;;;;34.01;30.01;101995.84;5230230;28;20029;-79
2022/05/18 10:56:08;;;;;;;6.35;2.10;;;;;;;33.74;29.41;101991.47;5223903;28;20039;-78
2022/05/18 10:58:51;;;;;;;4.28;2.28;;;;;;;33.81;29.25;101996.84;5218386;28;20033;-81
2022/05/18 11:01:34;;;;;;;7.20;2.08;;;;;;;33.65;29.26;101993.63;5219485;28;20484;-81
2022/05/18 11:04:18;;;;;;;6.83;2.10;;;;;;;33.38;29.39;101991.09;5219686;28;20064;-82
2022/05/18 11:06:49;;;;;;;5.88;2.70;;;;;;;33.11;30.45;101998.56;5227034;28;20064;-82
2022/05/18 11:09:30;;;;;;;5.70;2.25;;;;;;;33.30;29.48;101984.03;5230396;28;20153;-82
2022/05/18 11:12:07;;;;;;;5.88;2.88;;;;;;;33.27;31.41;101973.63;5229969;28;20030;-81
2022/05/18 11:14:48;;;;;;;7.25;1.92;;;;;;;33.07;30.78;101987.28;5230163;28;20469;-81
2022/05/18 11:17:41;;;;;;;5.47;2.20;;;;;;;33.66;30.40;101986.31;5227915;28;20065;-81
2022/05/18 11:20:32;;;;;;;4.20;2.10;;;;;;;33.65;30.29;101984.69;5207347;28;20063;-82
2022/05/18 11:23:25;;;;;;;5.65;2.38;;;;;;;33.41;30.80;101987.13;5218794;28;20045;-82
2022/05/18 11:26:24;;;;;;;8.38;2.63;;;;;;;33.69;30.72;101983.16;5217538;28;20025;-84
2022/05/18 11:29:17;;;;;;;5.90;2.25;;;;;;;33.43;30.98;101977.69;5218715;28;20044;-82
2022/05/18 11:32:14;;;;;;;8.02;2.63;;;;;;;33.15;30.72;101988.91;5217693;28;20057;-82
2022/05/18 11:35:10;;;;;;;7.47;3.08;;;;;;;33.73;30.64;101976.25;5199211;28;20319;-83
2022/05/18 11:38:16;;;;;;;6.22;2.25;;;;;;;33.56;30.67;101975.94;5220611;28;20018;-81
2022/05/18 11:40:55;;;;;;;5.68;2.13;;;;;;;33.26;31.56;101976.56;5216290;28;20125;-79
2022/05/18 11:43:47;;;;;;;6.10;2.33;;;;;;;33.51;30.72;101973.91;5212809;28;20060;-79
2022/05/18 11:46:27;;;;;;;6.05;2.58;;;;;;;33.40;30.72;101970.00;5216590;28;20146;-79
2022/05/18 11:49:25;;;;;;;6.20;2.38;;;;;;;32.93;31.82;101972.94;5214364;28;20045;-79
2022/05/18 11:52:11;;;;;;;7.05;2.33;;;;;;;32.36;31.95;101964.34;5220635;28;20040;-81
2022/05/18 11:55:14;;;;;;;7.68;2.95;;;;;;;32.71;31.73;101971.34;5229782;28;20114;-80
2022/05/18 11:58:01;;;;;;;7.90;2.33;;;;;;;32.94;31.13;101971.88;5214776;28;20404;-79
2022/05/18 12:01:00;;;;;;;5.80;2.17;;;;;;;32.76;31.68;101978.03;5218734;28;20639;-79
2022/05/18 12:03:59;;;;;;;10.70;2.75;;;;;;;32.46;32.17;101990.19;5212204;28;20076;-78
2022/05/18 12:07:01;;;;;;;6.53;2.20;;;;;;;32.35;31.84;101978.13;5219699;28;20073;-82
2022/05/18 12:10:14;;;;;;;4.63;2.20;;;;;;;32.25;32.63;101973.16;5218523;28;20076;-90
2022/05/18 12:12:53;;;;;;;10.98;2.88;;;;;;;31.69;33.35;101973.34;5220064;28;20507;-75
2022/05/18 12:16:02;;;;;;;6.03;2.58;;;;;;;31.82;33.86;101974.41;5229409;28;20603;-75
2022/05/18 12:18:52;;;;;;;7.03;3.65;;;;;;;31.52;34.13;101964.81;5213442;28;20033;-72
2022/05/18 12:21:34;;;;;;;6.97;3.00;;;;;;;31.94;33.36;101974.59;5226057;28;20438;-72